Aéroport int. de Vancouver, Colombie-Britannique

Conditions des dernières 24 heures

Ce tableau est un sommaire des conditions météo couvrant les dernières 24 heures. Ce sommaire inclut les paramètres suivants: température, humidité, point de rosée, direction et vitesse du vent, pression barométrique, facteur de refroidissement éolien ou indice humidex.
Date / Heure
(HAP)
Conditions Temp (°F) Humidite (%) Point de rose (°F) Vent (mph) Pression (pouces) Vis (mi) Humidex
22 septembre 2014
17:00 Généralement nuageux 67 66 55 SE 13 29.9 20 *
16:00 Partiellement nuageux 68 63 55 ESE 14 30.0 20 *
15:00 Généralement nuageux 69 63 56 ESE 14 30.0 20 *
14:00 Généralement nuageux 68 70 58 ENE 10 30.0 20 *
13:00 Généralement nuageux 66 76 58 ENE 12 30.0 20 *
12:00 Généralement nuageux 63 84 58 ESE 11 30.0 15 *
11:00 Généralement nuageux 62 86 58 E 11 30.0 15 *
10:00 Généralement nuageux 62 86 58 ESE 9 30.0 15 *
9:00 Généralement nuageux 62 87 58 E 13 30.0 15 *
8:00 Généralement nuageux 62 85 57 ESE 14 29.9 15 *
7:00 Généralement nuageux 62 84 57 E 13 29.9 15 *
6:00 Généralement nuageux 62 84 57 ESE 14 29.9 15 *
5:00 Généralement nuageux 61   85 57 E 13 29.9 15 *
4:00 Partiellement nuageux 61   86 57 E 15 29.9 15 *
3:00 Généralement nuageux 61   86 57 E 13 29.9 15 *
2:00 Généralement dégagé 61   85 57 ESE 13 29.9 15 *
1:00 Généralement dégagé 62 84 57 ESE 11 29.9 15 *
0:00 Partiellement nuageux 62 82 57 ESE 9 29.9 15 *
21 septembre 2014
23:00 Partiellement nuageux 64 79 57 E 14 29.9 20 *
22:00 Généralement dégagé 65 74 57 ESE 15 29.9 20 *
21:00 Généralement dégagé 63 77 56 ESE 9 29.8 20 *
20:00 Partiellement nuageux 65 69 55 E 5 29.8 20 *
19:00 Partiellement nuageux 69 60 55 SE 8 29.8 30 *
18:00 Ensoleillé 74 54 57 SSE 6 29.8 30 80
17:00 Ensoleillé 75   61 60 ONO 3 29.8 30 83
N.D.
non disponible
 ↑ 
température la plus haute
 ↓ 
température la plus basse
*
Valeur non significative.

Si vous désirez plus de données historiques sur les conditions météo, s.v.p. visitez Données climatologiques en ligne.